sensor_id;sensor_type;location;lat;lon;timestamp;temperature;humidity
67549;DHT22;54382;53.524;49.326;2022-09-16T00:00:19;21.30;49.50
67549;DHT22;54382;53.524;49.326;2022-09-16T00:02:46;21.30;49.50
67549;DHT22;54382;53.524;49.326;2022-09-16T00:05:13;21.30;49.50
67549;DHT22;54382;53.524;49.326;2022-09-16T00:07:39;21.30;49.50
67549;DHT22;54382;53.524;49.326;2022-09-16T00:10:05;21.30;49.50
67549;DHT22;54382;53.524;49.326;2022-09-16T00:12:32;21.40;49.50
67549;DHT22;54382;53.524;49.326;2022-09-16T00:14:59;21.40;49.50
67549;DHT22;54382;53.524;49.326;2022-09-16T00:17:25;21.40;49.60
67549;DHT22;54382;53.524;49.326;2022-09-16T00:19:51;21.40;49.60
67549;DHT22;54382;53.524;49.326;2022-09-16T00:22:18;21.40;49.70
67549;DHT22;54382;53.524;49.326;2022-09-16T00:24:44;21.40;49.60
67549;DHT22;54382;53.524;49.326;2022-09-16T00:27:13;21.40;49.60
67549;DHT22;54382;53.524;49.326;2022-09-16T00:29:39;21.40;49.50
67549;DHT22;54382;53.524;49.326;2022-09-16T00:32:06;21.40;49.60
67549;DHT22;54382;53.524;49.326;2022-09-16T00:34:32;21.40;49.60
67549;DHT22;54382;53.524;49.326;2022-09-16T00:36:58;21.40;49.50
67549;DHT22;54382;53.524;49.326;2022-09-16T00:39:28;21.40;49.50
67549;DHT22;54382;53.524;49.326;2022-09-16T00:41:54;21.40;49.40
67549;DHT22;54382;53.524;49.326;2022-09-16T00:47:15;21.40;49.40
67549;DHT22;54382;53.524;49.326;2022-09-16T00:50:06;21.40;49.40
67549;DHT22;54382;53.524;49.326;2022-09-16T00:52:33;21.30;49.40
67549;DHT22;54382;53.524;49.326;2022-09-16T00:55:00;21.30;49.60
67549;DHT22;54382;53.524;49.326;2022-09-16T00:57:29;21.30;49.50
67549;DHT22;54382;53.524;49.326;2022-09-16T00:59:56;21.30;49.50
67549;DHT22;54382;53.524;49.326;2022-09-16T01:02:22;21.40;49.60
67549;DHT22;54382;53.524;49.326;2022-09-16T01:04:51;21.40;49.70
67549;DHT22;54382;53.524;49.326;2022-09-16T01:07:55;21.30;49.60
67549;DHT22;54382;53.524;49.326;2022-09-16T01:10:16;21.30;49.80
67549;DHT22;54382;53.524;49.326;2022-09-16T01:12:45;21.30;49.80
67549;DHT22;54382;53.524;49.326;2022-09-16T01:15:14;21.30;49.80
67549;DHT22;54382;53.524;49.326;2022-09-16T01:17:51;21.30;49.80
67549;DHT22;54382;53.524;49.326;2022-09-16T01:26:17;21.20;49.60
67549;DHT22;54382;53.524;49.326;2022-09-16T01:29:11;21.20;49.70
67549;DHT22;54382;53.524;49.326;2022-09-16T01:36:46;20.90;49.80
67549;DHT22;54382;53.524;49.326;2022-09-16T01:50:51;20.60;50.30
67549;DHT22;54382;53.524;49.326;2022-09-16T01:53:29;20.50;50.30
67549;DHT22;54382;53.524;49.326;2022-09-16T01:56:02;20.40;50.30
67549;DHT22;54382;53.524;49.326;2022-09-16T01:58:50;20.40;50.40
67549;DHT22;54382;53.524;49.326;2022-09-16T02:01:27;20.30;50.50
67549;DHT22;54382;53.524;49.326;2022-09-16T02:03:59;20.20;50.60
67549;DHT22;54382;53.524;49.326;2022-09-16T02:06:28;20.10;50.60
67549;DHT22;54382;53.524;49.326;2022-09-16T02:11:53;19.90;50.80
67549;DHT22;54382;53.524;49.326;2022-09-16T02:14:21;19.90;50.90
67549;DHT22;54382;53.524;49.326;2022-09-16T02:16:52;19.90;51.20
67549;DHT22;54382;53.524;49.326;2022-09-16T02:22:17;19.80;51.10
67549;DHT22;54382;53.524;49.326;2022-09-16T02:24:47;19.80;51.10
67549;DHT22;54382;53.524;49.326;2022-09-16T02:27:15;19.80;51.10
67549;DHT22;54382;53.524;49.326;2022-09-16T02:29:45;19.80;51.10
67549;DHT22;54382;53.524;49.326;2022-09-16T02:32:14;19.70;50.90
67549;DHT22;54382;53.524;49.326;2022-09-16T02:34:44;19.70;51.00
67549;DHT22;54382;53.524;49.326;2022-09-16T02:37:13;19.60;51.00
67549;DHT22;54382;53.524;49.326;2022-09-16T02:39:43;19.60;51.00
67549;DHT22;54382;53.524;49.326;2022-09-16T02:42:13;19.60;51.20
67549;DHT22;54382;53.524;49.326;2022-09-16T02:44:39;19.60;51.40
67549;DHT22;54382;53.524;49.326;2022-09-16T02:47:14;19.60;51.60
67549;DHT22;54382;53.524;49.326;2022-09-16T02:57:58;19.70;51.50
67549;DHT22;54382;53.524;49.326;2022-09-16T03:00:25;19.70;51.70
67549;DHT22;54382;53.524;49.326;2022-09-16T03:02:53;19.80;51.90
67549;DHT22;54382;53.524;49.326;2022-09-16T03:05:25;19.80;51.90
67549;DHT22;54382;53.524;49.326;2022-09-16T03:07:53;19.80;51.90
67549;DHT22;54382;53.524;49.326;2022-09-16T03:10:19;19.80;51.80
67549;DHT22;54382;53.524;49.326;2022-09-16T03:31:55;20.30;52.30
67549;DHT22;54382;53.524;49.326;2022-09-16T03:34:27;20.40;52.10
67549;DHT22;54382;53.524;49.326;2022-09-16T03:36:57;20.40;51.70
67549;DHT22;54382;53.524;49.326;2022-09-16T03:39:28;20.50;52.20
67549;DHT22;54382;53.524;49.326;2022-09-16T03:41:59;20.60;52.40
67549;DHT22;54382;53.524;49.326;2022-09-16T03:44:30;20.60;52.40
67549;DHT22;54382;53.524;49.326;2022-09-16T03:47:00;20.70;52.40
67549;DHT22;54382;53.524;49.326;2022-09-16T03:49:27;20.70;52.20
67549;DHT22;54382;53.524;49.326;2022-09-16T03:51:55;20.80;52.10
67549;DHT22;54382;53.524;49.326;2022-09-16T03:54:22;20.90;51.90
67549;DHT22;54382;53.524;49.326;2022-09-16T03:56:48;20.90;51.70
67549;DHT22;54382;53.524;49.326;2022-09-16T03:59:15;20.90;51.50
67549;DHT22;54382;53.524;49.326;2022-09-16T04:01:42;20.90;51.50
67549;DHT22;54382;53.524;49.326;2022-09-16T04:04:09;21.00;51.30
67549;DHT22;54382;53.524;49.326;2022-09-16T04:06:37;21.10;51.20
67549;DHT22;54382;53.524;49.326;2022-09-16T04:09:06;21.10;51.10
67549;DHT22;54382;53.524;49.326;2022-09-16T04:11:37;21.20;51.20
67549;DHT22;54382;53.524;49.326;2022-09-16T04:14:04;21.30;51.20
67549;DHT22;54382;53.524;49.326;2022-09-16T04:16:30;21.40;51.00
67549;DHT22;54382;53.524;49.326;2022-09-16T04:18:57;21.60;50.80
67549;DHT22;54382;53.524;49.326;2022-09-16T04:21:24;21.80;50.20
67549;DHT22;54382;53.524;49.326;2022-09-16T04:23:50;21.90;49.80
67549;DHT22;54382;53.524;49.326;2022-09-16T04:26:19;22.00;49.60
67549;DHT22;54382;53.524;49.326;2022-09-16T04:28:45;22.10;49.60
67549;DHT22;54382;53.524;49.326;2022-09-16T04:31:15;22.20;49.40
67549;DHT22;54382;53.524;49.326;2022-09-16T04:33:41;22.40;49.10
67549;DHT22;54382;53.524;49.326;2022-09-16T04:36:11;22.60;48.70
67549;DHT22;54382;53.524;49.326;2022-09-16T04:38:40;22.70;48.30
67549;DHT22;54382;53.524;49.326;2022-09-16T04:41:11;22.80;47.80
67549;DHT22;54382;53.524;49.326;2022-09-16T04:43:40;22.90;47.70
67549;DHT22;54382;53.524;49.326;2022-09-16T04:46:07;23.00;47.40
67549;DHT22;54382;53.524;49.326;2022-09-16T04:48:33;23.10;47.10
67549;DHT22;54382;53.524;49.326;2022-09-16T04:51:07;23.20;46.80
67549;DHT22;54382;53.524;49.326;2022-09-16T04:53:34;23.30;46.60
67549;DHT22;54382;53.524;49.326;2022-09-16T04:56:02;23.30;46.70
67549;DHT22;54382;53.524;49.326;2022-09-16T04:58:42;23.40;46.80
67549;DHT22;54382;53.524;49.326;2022-09-16T05:01:13;23.40;46.50
67549;DHT22;54382;53.524;49.326;2022-09-16T05:03:41;23.50;46.50
67549;DHT22;54382;53.524;49.326;2022-09-16T05:06:13;23.60;46.10
67549;DHT22;54382;53.524;49.326;2022-09-16T05:08:40;23.60;45.80
67549;DHT22;54382;53.524;49.326;2022-09-16T05:11:08;23.70;45.90
67549;DHT22;54382;53.524;49.326;2022-09-16T05:13:36;23.80;45.90
67549;DHT22;54382;53.524;49.326;2022-09-16T05:16:04;23.90;45.10
67549;DHT22;54382;53.524;49.326;2022-09-16T05:18:35;24.00;44.90
67549;DHT22;54382;53.524;49.326;2022-09-16T05:21:02;24.10;45.00
67549;DHT22;54382;53.524;49.326;2022-09-16T05:23:30;24.20;44.60
67549;DHT22;54382;53.524;49.326;2022-09-16T05:26:01;24.30;44.50
67549;DHT22;54382;53.524;49.326;2022-09-16T05:28:28;24.40;44.30
67549;DHT22;54382;53.524;49.326;2022-09-16T05:30:55;24.60;44.20
67549;DHT22;54382;53.524;49.326;2022-09-16T05:33:31;24.70;44.10
67549;DHT22;54382;53.524;49.326;2022-09-16T05:36:02;24.80;43.50
67549;DHT22;54382;53.524;49.326;2022-09-16T05:38:32;24.80;42.70
67549;DHT22;54382;53.524;49.326;2022-09-16T05:40:59;24.70;42.90
67549;DHT22;54382;53.524;49.326;2022-09-16T05:43:26;24.60;43.00
67549;DHT22;54382;53.524;49.326;2022-09-16T05:45:53;24.60;43.10
67549;DHT22;54382;53.524;49.326;2022-09-16T05:48:20;24.60;43.40
67549;DHT22;54382;53.524;49.326;2022-09-16T05:50:53;24.70;43.00
67549;DHT22;54382;53.524;49.326;2022-09-16T05:53:21;24.70;42.60
67549;DHT22;54382;53.524;49.326;2022-09-16T05:56:21;24.70;42.60
67549;DHT22;54382;53.524;49.326;2022-09-16T05:58:41;24.70;42.40
67549;DHT22;54382;53.524;49.326;2022-09-16T06:01:09;24.80;42.10
67549;DHT22;54382;53.524;49.326;2022-09-16T06:03:40;24.70;42.20
67549;DHT22;54382;53.524;49.326;2022-09-16T06:06:11;24.70;41.90
67549;DHT22;54382;53.524;49.326;2022-09-16T06:08:38;24.90;41.90
67549;DHT22;54382;53.524;49.326;2022-09-16T06:11:06;25.00;41.50
67549;DHT22;54382;53.524;49.326;2022-09-16T06:13:33;25.10;41.40
67549;DHT22;54382;53.524;49.326;2022-09-16T06:16:00;25.30;41.20
67549;DHT22;54382;53.524;49.326;2022-09-16T06:18:27;25.50;40.80
67549;DHT22;54382;53.524;49.326;2022-09-16T06:20:54;25.70;40.40
67549;DHT22;54382;53.524;49.326;2022-09-16T06:23:21;25.80;40.50
67549;DHT22;54382;53.524;49.326;2022-09-16T06:25:48;26.00;40.60
67549;DHT22;54382;53.524;49.326;2022-09-16T06:28:14;26.20;39.70
67549;DHT22;54382;53.524;49.326;2022-09-16T06:30:40;26.40;38.80
67549;DHT22;54382;53.524;49.326;2022-09-16T06:33:07;26.60;38.70
67549;DHT22;54382;53.524;49.326;2022-09-16T06:35:35;26.70;38.60
67549;DHT22;54382;53.524;49.326;2022-09-16T06:38:02;26.70;38.20
67549;DHT22;54382;53.524;49.326;2022-09-16T06:40:28;26.70;38.20
67549;DHT22;54382;53.524;49.326;2022-09-16T06:42:54;26.70;37.70
67549;DHT22;54382;53.524;49.326;2022-09-16T06:45:21;26.80;37.80
67549;DHT22;54382;53.524;49.326;2022-09-16T06:47:47;26.80;37.50
67549;DHT22;54382;53.524;49.326;2022-09-16T06:50:14;26.90;37.00
67549;DHT22;54382;53.524;49.326;2022-09-16T06:52:40;27.00;37.00
67549;DHT22;54382;53.524;49.326;2022-09-16T06:55:07;27.00;37.10
67549;DHT22;54382;53.524;49.326;2022-09-16T06:57:33;27.10;36.90
67549;DHT22;54382;53.524;49.326;2022-09-16T06:59:59;27.10;37.30
67549;DHT22;54382;53.524;49.326;2022-09-16T07:02:27;27.20;37.40
67549;DHT22;54382;53.524;49.326;2022-09-16T07:04:55;27.40;37.10
67549;DHT22;54382;53.524;49.326;2022-09-16T07:07:23;27.60;36.60
67549;DHT22;54382;53.524;49.326;2022-09-16T07:09:49;27.60;35.90
67549;DHT22;54382;53.524;49.326;2022-09-16T07:12:16;27.70;35.80
67549;DHT22;54382;53.524;49.326;2022-09-16T07:14:42;27.80;35.60
67549;DHT22;54382;53.524;49.326;2022-09-16T07:17:09;27.90;35.70
67549;DHT22;54382;53.524;49.326;2022-09-16T07:19:35;27.90;34.20
67549;DHT22;54382;53.524;49.326;2022-09-16T07:22:02;27.90;34.30
67549;DHT22;54382;53.524;49.326;2022-09-16T07:24:28;27.90;34.60
67549;DHT22;54382;53.524;49.326;2022-09-16T07:26:55;27.80;34.70
67549;DHT22;54382;53.524;49.326;2022-09-16T07:29:22;27.70;35.30
67549;DHT22;54382;53.524;49.326;2022-09-16T07:31:48;27.60;35.70
67549;DHT22;54382;53.524;49.326;2022-09-16T07:34:14;27.60;35.90
67549;DHT22;54382;53.524;49.326;2022-09-16T07:36:42;27.60;35.40
67549;DHT22;54382;53.524;49.326;2022-09-16T07:39:10;27.60;35.80
67549;DHT22;54382;53.524;49.326;2022-09-16T07:41:39;27.50;35.20
67549;DHT22;54382;53.524;49.326;2022-09-16T07:44:08;27.40;35.10
67549;DHT22;54382;53.524;49.326;2022-09-16T07:46:36;27.30;35.30
67549;DHT22;54382;53.524;49.326;2022-09-16T07:49:03;27.30;35.50
67549;DHT22;54382;53.524;49.326;2022-09-16T07:51:30;27.30;35.80
67549;DHT22;54382;53.524;49.326;2022-09-16T07:53:58;27.40;35.40
67549;DHT22;54382;53.524;49.326;2022-09-16T07:56:26;27.50;35.00
67549;DHT22;54382;53.524;49.326;2022-09-16T07:58:54;27.60;35.10
67549;DHT22;54382;53.524;49.326;2022-09-16T08:01:21;27.70;35.40
67549;DHT22;54382;53.524;49.326;2022-09-16T08:03:47;27.70;35.50
67549;DHT22;54382;53.524;49.326;2022-09-16T08:06:18;27.80;35.40
67549;DHT22;54382;53.524;49.326;2022-09-16T08:08:45;27.90;35.40
67549;DHT22;54382;53.524;49.326;2022-09-16T08:11:13;27.90;35.20
67549;DHT22;54382;53.524;49.326;2022-09-16T08:13:40;27.80;35.20
67549;DHT22;54382;53.524;49.326;2022-09-16T08:16:09;27.90;35.20
67549;DHT22;54382;53.524;49.326;2022-09-16T08:18:36;27.90;34.70
67549;DHT22;54382;53.524;49.326;2022-09-16T08:21:06;27.90;34.90
67549;DHT22;54382;53.524;49.326;2022-09-16T08:23:34;28.00;35.00
67549;DHT22;54382;53.524;49.326;2022-09-16T08:26:01;28.10;34.80
67549;DHT22;54382;53.524;49.326;2022-09-16T08:28:28;28.30;35.00
67549;DHT22;54382;53.524;49.326;2022-09-16T08:30:57;28.60;34.60
67549;DHT22;54382;53.524;49.326;2022-09-16T08:33:24;28.90;34.80
67549;DHT22;54382;53.524;49.326;2022-09-16T08:38:27;29.60;33.30
67549;DHT22;54382;53.524;49.326;2022-09-16T08:40:58;30.00;33.60
67549;DHT22;54382;53.524;49.326;2022-09-16T08:43:32;30.20;32.70
67549;DHT22;54382;53.524;49.326;2022-09-16T08:46:23;30.50;32.70
67549;DHT22;54382;53.524;49.326;2022-09-16T08:51:24;30.80;31.50
67549;DHT22;54382;53.524;49.326;2022-09-16T08:53:55;31.00;31.10
67549;DHT22;54382;53.524;49.326;2022-09-16T08:56:25;31.30;31.40
67549;DHT22;54382;53.524;49.326;2022-09-16T08:58:54;31.40;30.40
67549;DHT22;54382;53.524;49.326;2022-09-16T09:01:33;31.60;30.40
67549;DHT22;54382;53.524;49.326;2022-09-16T09:04:03;31.50;30.40
67549;DHT22;54382;53.524;49.326;2022-09-16T09:17:50;30.70;30.40
67549;DHT22;54382;53.524;49.326;2022-09-16T09:25:07;30.10;31.10
67549;DHT22;54382;53.524;49.326;2022-09-16T09:27:53;29.90;31.20
67549;DHT22;54382;53.524;49.326;2022-09-16T09:30:52;29.70;31.40
67549;DHT22;54382;53.524;49.326;2022-09-16T09:33:37;29.40;31.60
67549;DHT22;54382;53.524;49.326;2022-09-16T09:46:13;29.50;32.20
67549;DHT22;54382;53.524;49.326;2022-09-16T09:48:50;29.60;32.10
67549;DHT22;54382;53.524;49.326;2022-09-16T09:51:32;29.50;32.00
67549;DHT22;54382;53.524;49.326;2022-09-16T09:54:03;29.50;32.10
67549;DHT22;54382;53.524;49.326;2022-09-16T09:56:40;29.40;32.20
67549;DHT22;54382;53.524;49.326;2022-09-16T09:59:20;29.40;32.40
67549;DHT22;54382;53.524;49.326;2022-09-16T10:01:52;29.40;32.40
67549;DHT22;54382;53.524;49.326;2022-09-16T10:04:19;29.40;32.60
67549;DHT22;54382;53.524;49.326;2022-09-16T10:06:46;29.50;32.60
67549;DHT22;54382;53.524;49.326;2022-09-16T10:09:15;29.60;32.20
67549;DHT22;54382;53.524;49.326;2022-09-16T10:11:54;29.90;32.10
67549;DHT22;54382;53.524;49.326;2022-09-16T10:17:01;30.70;31.50
67549;DHT22;54382;53.524;49.326;2022-09-16T10:19:30;31.00;31.60
67549;DHT22;54382;53.524;49.326;2022-09-16T10:22:23;31.30;30.20
67549;DHT22;54382;53.524;49.326;2022-09-16T10:24:59;31.60;30.70
67549;DHT22;54382;53.524;49.326;2022-09-16T10:27:34;31.70;30.30
67549;DHT22;54382;53.524;49.326;2022-09-16T10:30:05;31.80;30.00
67549;DHT22;54382;53.524;49.326;2022-09-16T10:33:01;31.70;29.90
67549;DHT22;54382;53.524;49.326;2022-09-16T10:35:59;31.70;30.20
67549;DHT22;54382;53.524;49.326;2022-09-16T10:41:08;31.60;29.70
67549;DHT22;54382;53.524;49.326;2022-09-16T10:43:51;31.40;29.90
67549;DHT22;54382;53.524;49.326;2022-09-16T10:46:18;31.30;30.10
67549;DHT22;54382;53.524;49.326;2022-09-16T10:48:45;31.20;30.40
67549;DHT22;54382;53.524;49.326;2022-09-16T10:51:30;31.10;30.20
67549;DHT22;54382;53.524;49.326;2022-09-16T10:54:00;31.00;30.10
67549;DHT22;54382;53.524;49.326;2022-09-16T10:56:33;31.00;30.00
67549;DHT22;54382;53.524;49.326;2022-09-16T10:59:11;30.90;30.20
67549;DHT22;54382;53.524;49.326;2022-09-16T11:01:43;30.80;30.30
67549;DHT22;54382;53.524;49.326;2022-09-16T11:04:34;30.90;30.60
67549;DHT22;54382;53.524;49.326;2022-09-16T11:07:14;30.80;30.40
67549;DHT22;54382;53.524;49.326;2022-09-16T11:12:46;30.80;30.00
67549;DHT22;54382;53.524;49.326;2022-09-16T11:15:40;30.90;30.40
67549;DHT22;54382;53.524;49.326;2022-09-16T11:18:39;30.90;30.10
67549;DHT22;54382;53.524;49.326;2022-09-16T11:21:44;30.80;30.00
67549;DHT22;54382;53.524;49.326;2022-09-16T11:24:16;30.70;30.10
67549;DHT22;54382;53.524;49.326;2022-09-16T11:38:17;30.10;30.50
67549;DHT22;54382;53.524;49.326;2022-09-16T11:40:53;30.00;30.70
67549;DHT22;54382;53.524;49.326;2022-09-16T11:51:58;29.80;31.20
67549;DHT22;54382;53.524;49.326;2022-09-16T11:57:28;29.70;31.50
67549;DHT22;54382;53.524;49.326;2022-09-16T12:00:01;29.60;31.70
67549;DHT22;54382;53.524;49.326;2022-09-16T12:02:37;29.50;31.80
67549;DHT22;54382;53.524;49.326;2022-09-16T12:13:18;29.30;31.90
67549;DHT22;54382;53.524;49.326;2022-09-16T12:15:52;29.20;32.00
67549;DHT22;54382;53.524;49.326;2022-09-16T12:18:35;29.10;32.20
67549;DHT22;54382;53.524;49.326;2022-09-16T12:21:09;29.00;32.30
67549;DHT22;54382;53.524;49.326;2022-09-16T12:23:39;28.90;32.50
67549;DHT22;54382;53.524;49.326;2022-09-16T12:26:16;28.90;32.70
67549;DHT22;54382;53.524;49.326;2022-09-16T12:33:55;29.00;32.80
67549;DHT22;54382;53.524;49.326;2022-09-16T12:36:24;29.10;32.70
67549;DHT22;54382;53.524;49.326;2022-09-16T12:38:56;29.10;32.70
67549;DHT22;54382;53.524;49.326;2022-09-16T12:41:28;29.00;32.60
67549;DHT22;54382;53.524;49.326;2022-09-16T12:47:10;28.70;32.90
67549;DHT22;54382;53.524;49.326;2022-09-16T13:07:46;27.90;33.90
67549;DHT22;54382;53.524;49.326;2022-09-16T13:10:16;27.80;34.00
67549;DHT22;54382;53.524;49.326;2022-09-16T13:12:51;27.80;34.10
67549;DHT22;54382;53.524;49.326;2022-09-16T13:18:23;27.80;34.30
67549;DHT22;54382;53.524;49.326;2022-09-16T13:21:00;27.70;34.40
67549;DHT22;54382;53.524;49.326;2022-09-16T13:23:35;27.80;34.60
67549;DHT22;54382;53.524;49.326;2022-09-16T13:26:07;27.80;34.50
67549;DHT22;54382;53.524;49.326;2022-09-16T13:28:41;27.80;34.50
67549;DHT22;54382;53.524;49.326;2022-09-16T13:33:45;27.80;34.70
67549;DHT22;54382;53.524;49.326;2022-09-16T13:38:45;27.90;34.70
67549;DHT22;54382;53.524;49.326;2022-09-16T13:41:28;27.90;34.60
67549;DHT22;54382;53.524;49.326;2022-09-16T13:44:28;28.00;34.70
67549;DHT22;54382;53.524;49.326;2022-09-16T13:49:43;28.00;34.70
67549;DHT22;54382;53.524;49.326;2022-09-16T13:52:32;28.00;34.70
67549;DHT22;54382;53.524;49.326;2022-09-16T13:55:00;28.00;34.80
67549;DHT22;54382;53.524;49.326;2022-09-16T13:57:41;28.00;34.70
67549;DHT22;54382;53.524;49.326;2022-09-16T14:00:24;27.90;34.80
67549;DHT22;54382;53.524;49.326;2022-09-16T14:08:15;27.60;35.00
67549;DHT22;54382;53.524;49.326;2022-09-16T14:10:54;27.50;35.10
67549;DHT22;54382;53.524;49.326;2022-09-16T14:13:30;27.50;35.20
67549;DHT22;54382;53.524;49.326;2022-09-16T14:16:00;27.30;35.30
67549;DHT22;54382;53.524;49.326;2022-09-16T14:18:28;27.30;35.40
67549;DHT22;54382;53.524;49.326;2022-09-16T14:21:00;27.20;35.50
67549;DHT22;54382;53.524;49.326;2022-09-16T14:23:53;27.10;35.60
67549;DHT22;54382;53.524;49.326;2022-09-16T14:26:20;27.00;35.80
67549;DHT22;54382;53.524;49.326;2022-09-16T14:28:48;26.90;35.90
67549;DHT22;54382;53.524;49.326;2022-09-16T14:31:16;26.80;35.90
67549;DHT22;54382;53.524;49.326;2022-09-16T14:33:46;26.70;36.10
67549;DHT22;54382;53.524;49.326;2022-09-16T14:36:30;26.60;36.10
67549;DHT22;54382;53.524;49.326;2022-09-16T14:38:59;26.50;36.20
67549;DHT22;54382;53.524;49.326;2022-09-16T14:41:30;26.40;36.40
67549;DHT22;54382;53.524;49.326;2022-09-16T14:47:01;26.20;36.60
67549;DHT22;54382;53.524;49.326;2022-09-16T14:49:35;26.00;36.70
67549;DHT22;54382;53.524;49.326;2022-09-16T14:52:02;25.90;37.00
67549;DHT22;54382;53.524;49.326;2022-09-16T14:54:29;25.70;37.20
67549;DHT22;54382;53.524;49.326;2022-09-16T14:57:06;25.60;37.40
67549;DHT22;54382;53.524;49.326;2022-09-16T14:59:37;25.50;37.60
67549;DHT22;54382;53.524;49.326;2022-09-16T15:02:06;25.40;37.90
67549;DHT22;54382;53.524;49.326;2022-09-16T15:04:42;25.30;38.10
67549;DHT22;54382;53.524;49.326;2022-09-16T15:07:19;25.20;38.20
67549;DHT22;54382;53.524;49.326;2022-09-16T15:09:57;25.00;38.30
67549;DHT22;54382;53.524;49.326;2022-09-16T15:15:43;24.90;38.80
67549;DHT22;54382;53.524;49.326;2022-09-16T15:17:53;24.80;39.60
67549;DHT22;54382;53.524;49.326;2022-09-16T15:20:27;24.70;39.20
67549;DHT22;54382;53.524;49.326;2022-09-16T15:22:56;24.70;39.50
67549;DHT22;54382;53.524;49.326;2022-09-16T15:25:25;24.70;39.60
67549;DHT22;54382;53.524;49.326;2022-09-16T15:28:03;24.60;39.50
67549;DHT22;54382;53.524;49.326;2022-09-16T15:30:49;24.60;39.90
67549;DHT22;54382;53.524;49.326;2022-09-16T15:33:34;24.50;39.90
67549;DHT22;54382;53.524;49.326;2022-09-16T15:36:02;24.50;40.10
67549;DHT22;54382;53.524;49.326;2022-09-16T15:38:32;24.40;40.10
67549;DHT22;54382;53.524;49.326;2022-09-16T15:41:02;24.40;40.50
67549;DHT22;54382;53.524;49.326;2022-09-16T15:43:36;24.30;41.00
67549;DHT22;54382;53.524;49.326;2022-09-16T15:46:06;24.20;41.30
67549;DHT22;54382;53.524;49.326;2022-09-16T15:48:44;24.20;41.60
67549;DHT22;54382;53.524;49.326;2022-09-16T15:51:55;24.20;41.60
67549;DHT22;54382;53.524;49.326;2022-09-16T15:56:46;24.10;41.60
67549;DHT22;54382;53.524;49.326;2022-09-16T15:59:40;24.10;41.70
67549;DHT22;54382;53.524;49.326;2022-09-16T16:05:16;24.10;41.50
67549;DHT22;54382;53.524;49.326;2022-09-16T16:07:45;24.20;41.50
67549;DHT22;54382;53.524;49.326;2022-09-16T16:10:24;24.20;41.50
67549;DHT22;54382;53.524;49.326;2022-09-16T16:12:53;24.20;41.50
67549;DHT22;54382;53.524;49.326;2022-09-16T16:15:20;24.20;41.60
67549;DHT22;54382;53.524;49.326;2022-09-16T16:18:07;24.20;41.60
67549;DHT22;54382;53.524;49.326;2022-09-16T16:20:35;24.10;41.50
67549;DHT22;54382;53.524;49.326;2022-09-16T16:23:02;24.10;41.70
67549;DHT22;54382;53.524;49.326;2022-09-16T16:25:29;24.00;42.00
67549;DHT22;54382;53.524;49.326;2022-09-16T16:27:55;24.00;42.20
67549;DHT22;54382;53.524;49.326;2022-09-16T16:30:21;23.90;42.40
67549;DHT22;54382;53.524;49.326;2022-09-16T16:32:48;23.90;42.50
67549;DHT22;54382;53.524;49.326;2022-09-16T16:35:14;23.80;42.40
67549;DHT22;54382;53.524;49.326;2022-09-16T16:37:41;23.80;42.50
67549;DHT22;54382;53.524;49.326;2022-09-16T16:40:07;23.80;42.70
67549;DHT22;54382;53.524;49.326;2022-09-16T16:42:34;23.80;42.60
67549;DHT22;54382;53.524;49.326;2022-09-16T16:45:00;23.70;42.90
67549;DHT22;54382;53.524;49.326;2022-09-16T16:47:27;23.60;43.10
67549;DHT22;54382;53.524;49.326;2022-09-16T16:49:53;23.60;43.30
67549;DHT22;54382;53.524;49.326;2022-09-16T16:52:19;23.50;43.30
67549;DHT22;54382;53.524;49.326;2022-09-16T16:54:46;23.50;43.30
67549;DHT22;54382;53.524;49.326;2022-09-16T16:57:14;23.40;43.30
67549;DHT22;54382;53.524;49.326;2022-09-16T16:59:40;23.40;43.30
67549;DHT22;54382;53.524;49.326;2022-09-16T17:02:07;23.40;43.40
67549;DHT22;54382;53.524;49.326;2022-09-16T17:04:34;23.40;43.40
67549;DHT22;54382;53.524;49.326;2022-09-16T17:07:01;23.40;43.60
67549;DHT22;54382;53.524;49.326;2022-09-16T17:09:28;23.40;43.40
67549;DHT22;54382;53.524;49.326;2022-09-16T17:11:58;23.40;43.60
67549;DHT22;54382;53.524;49.326;2022-09-16T17:14:28;23.40;43.80
67549;DHT22;54382;53.524;49.326;2022-09-16T17:16:55;23.40;43.70
67549;DHT22;54382;53.524;49.326;2022-09-16T17:19:22;23.30;43.90
67549;DHT22;54382;53.524;49.326;2022-09-16T17:21:49;23.30;44.10
67549;DHT22;54382;53.524;49.326;2022-09-16T17:24:17;23.30;44.10
67549;DHT22;54382;53.524;49.326;2022-09-16T17:26:44;23.20;44.10
67549;DHT22;54382;53.524;49.326;2022-09-16T17:29:11;23.20;44.10
67549;DHT22;54382;53.524;49.326;2022-09-16T17:31:38;23.20;44.10
67549;DHT22;54382;53.524;49.326;2022-09-16T17:34:05;23.10;44.10
67549;DHT22;54382;53.524;49.326;2022-09-16T17:36:37;23.10;44.20
67549;DHT22;54382;53.524;49.326;2022-09-16T17:39:05;23.10;44.40
67549;DHT22;54382;53.524;49.326;2022-09-16T17:41:33;23.00;44.70
67549;DHT22;54382;53.524;49.326;2022-09-16T17:44:04;22.90;44.90
67549;DHT22;54382;53.524;49.326;2022-09-16T17:46:31;22.80;44.90
67549;DHT22;54382;53.524;49.326;2022-09-16T17:49:02;22.80;44.90
67549;DHT22;54382;53.524;49.326;2022-09-16T17:51:30;22.80;44.90
67549;DHT22;54382;53.524;49.326;2022-09-16T17:53:57;22.80;45.00
67549;DHT22;54382;53.524;49.326;2022-09-16T17:56:24;22.80;45.00
67549;DHT22;54382;53.524;49.326;2022-09-16T17:58:51;22.70;45.00
67549;DHT22;54382;53.524;49.326;2022-09-16T18:01:19;22.70;45.20
67549;DHT22;54382;53.524;49.326;2022-09-16T18:03:48;22.70;45.30
67549;DHT22;54382;53.524;49.326;2022-09-16T18:06:23;22.70;45.30
67549;DHT22;54382;53.524;49.326;2022-09-16T18:08:53;22.70;45.40
67549;DHT22;54382;53.524;49.326;2022-09-16T18:11:20;22.80;45.50
67549;DHT22;54382;53.524;49.326;2022-09-16T18:13:46;22.80;45.80
67549;DHT22;54382;53.524;49.326;2022-09-16T18:16:14;22.80;45.90
67549;DHT22;54382;53.524;49.326;2022-09-16T18:18:42;22.80;45.90
67549;DHT22;54382;53.524;49.326;2022-09-16T18:21:10;22.80;46.00
67549;DHT22;54382;53.524;49.326;2022-09-16T18:23:39;22.80;46.80
67549;DHT22;54382;53.524;49.326;2022-09-16T18:26:07;22.80;46.20
67549;DHT22;54382;53.524;49.326;2022-09-16T18:28:35;22.90;46.60
67549;DHT22;54382;53.524;49.326;2022-09-16T18:31:03;22.90;46.60
67549;DHT22;54382;53.524;49.326;2022-09-16T18:33:30;22.90;46.70
67549;DHT22;54382;53.524;49.326;2022-09-16T18:36:01;23.00;46.60
67549;DHT22;54382;53.524;49.326;2022-09-16T18:38:29;23.00;46.40
67549;DHT22;54382;53.524;49.326;2022-09-16T18:41:06;23.10;46.30